Time;durP1;ratioP1;P1;durP2;ratioP2;P2;SDS_P1;SDS_P2;PMS_P1;PMS_P2;Temp;Humidity;BMP_temperature;BMP_pressure;BME280_temperature;BME280_humidity;BME280_pressure;Samples;Min_cycle;Max_cycle;Signal;HPM_P1;HPM_P2
2022/01/16 00:04:06;;;;;;;15.4;8.6;;;;;;;-1.49;94.92676;943.0765;;;;
2022/01/16 00:04:18;;;;;;;11.7;7.3;;;;;;;-1.5;95.125;942.8303;;;;
2022/01/16 00:06:51;;;;;;;11.4;7.7;;;;;;;-1.46;95.5332;942.6799;;;;
2022/01/16 00:09:16;;;;;;;12.2;8.1;;;;;;;-1.48;95.40625;942.741;;;;
2022/01/16 00:11:50;;;;;;;12.6;8.3;;;;;;;-1.49;95.51563;942.8109;;;;
2022/01/16 00:14:14;;;;;;;13.6;8.3;;;;;;;-1.39;95.3623;942.8834;;;;
2022/01/16 00:16:43;;;;;;;12.3;8.2;;;;;;;-1.32;94.89063;943.0161;;;;
2022/01/16 00:19:19;;;;;;;12.9;8;;;;;;;-1.38;94.50781;942.7772;;;;
2022/01/16 00:21:58;;;;;;;15.4;9.8;;;;;;;-1.27;93.96777;942.8979;;;;
2022/01/16 00:24:22;;;;;;;14.7;8.4;;;;;;;-1.31;93.30176;942.6766;;;;
2022/01/16 00:26:48;;;;;;;12.2;8.2;;;;;;;-1.29;93.78613;942.4991;;;;
2022/01/16 00:29:14;;;;;;;17.3;10.4;;;;;;;-1.29;93.61914;942.5041;;;;
2022/01/16 00:31:45;;;;;;;20.2;12.3;;;;;;;-1.34;93.75195;942.6309;;;;
2022/01/16 00:34:09;;;;;;;18.9;10.6;;;;;;;-1.26;93.33691;942.9827;;;;
2022/01/16 00:36:35;;;;;;;19.9;11.2;;;;;;;-1.14;93.2627;942.7363;;;;
2022/01/16 00:39:01;;;;;;;19.9;10.8;;;;;;;-1.18;92.91016;942.9631;;;;
2022/01/16 00:41:28;;;;;;;19.5;11.6;;;;;;;-1.13;92.63086;943.0494;;;;
2022/01/16 00:43:54;;;;;;;22.8;13.1;;;;;;;-1.05;92.21582;942.9655;;;;
2022/01/16 00:46:20;;;;;;;21.8;11.7;;;;;;;-1.1;91.92578;942.7308;;;;
2022/01/16 00:48:46;;;;;;;17.8;11;;;;;;;-1.08;91.33203;942.7299;;;;
2022/01/16 00:51:11;;;;;;;11.6;7.4;;;;;;;-1.23;92.07617;942.7833;;;;
2022/01/16 00:53:39;;;;;;;13.3;7.6;;;;;;;-1.19;92.6084;942.771;;;;
2022/01/16 00:56:06;;;;;;;14.8;8.8;;;;;;;-1.24;92.64063;942.8348;;;;
2022/01/16 00:58:31;;;;;;;14.8;8.5;;;;;;;-1.23;92.59863;943.0048;;;;
2022/01/16 01:00:59;;;;;;;13.2;7.7;;;;;;;-1.22;92.30273;943.0801;;;;
2022/01/16 01:03:25;;;;;;;11.2;7.2;;;;;;;-1.23;91.51172;943.1046;;;;
2022/01/16 01:05:52;;;;;;;10;6.5;;;;;;;-1.23;91.11035;943.1595;;;;
2022/01/16 01:08:17;;;;;;;16;9.7;;;;;;;-1.44;91.78613;943.0536;;;;
2022/01/16 01:10:46;;;;;;;16.8;10.5;;;;;;;-1.52;92.23535;943.2274;;;;
2022/01/16 01:13:20;;;;;;;12;7.6;;;;;;;-1.47;92.61133;943.0687;;;;
2022/01/16 01:15:41;;;;;;;8.7;5.9;;;;;;;-1.46;92.81348;942.4705;;;;
2022/01/16 01:17:58;;;;;;;10;6.5;;;;;;;-1.41;92.53613;942.4902;;;;
2022/01/16 01:20:24;;;;;;;12;6.9;;;;;;;-1.31;92.06934;942.2332;;;;
2022/01/16 01:22:48;;;;;;;10.5;6.4;;;;;;;-1.33;91.93262;942.3578;;;;
2022/01/16 01:25:16;;;;;;;11.7;7.8;;;;;;;-1.33;91.76367;942.4425;;;;
2022/01/16 01:27:41;;;;;;;11.8;7.4;;;;;;;-1.36;91.6709;942.601;;;;
2022/01/16 01:30:11;;;;;;;10.7;6.7;;;;;;;-1.36;91.59375;942.7744;;;;
2022/01/16 01:32:38;;;;;;;11.8;7.8;;;;;;;-1.46;91.69141;942.8234;;;;
2022/01/16 01:35:03;;;;;;;15.9;8.9;;;;;;;-1.43;91.69043;942.9303;;;;
2022/01/16 01:37:30;;;;;;;14.3;8.1;;;;;;;-1.4;91.28613;942.9387;;;;
2022/01/16 01:39:56;;;;;;;11.4;6.4;;;;;;;-1.46;90.62793;943.0268;;;;
2022/01/16 01:42:31;;;;;;;9;6.1;;;;;;;-1.52;91.16016;943.1089;;;;
2022/01/16 01:52:05;;;;;;;11.2;6.9;;;;;;;-1.79;94.09473;943.0307;;;;
2022/01/16 01:54:34;;;;;;;11.2;7.1;;;;;;;-1.82;94.06641;943.0722;;;;
2022/01/16 01:56:59;;;;;;;10.9;6.1;;;;;;;-1.78;94.35156;942.8644;;;;
2022/01/16 01:59:25;;;;;;;7.8;4.9;;;;;;;-1.66;93.81445;942.9687;;;;
2022/01/16 02:01:50;;;;;;;8.5;5.1;;;;;;;-1.64;93.04102;943.1595;;;;
2022/01/16 02:04:17;;;;;;;6.3;4.5;;;;;;;-1.61;92.63672;943.2224;;;;
2022/01/16 02:06:43;;;;;;;5.1;4.5;;;;;;;-1.58;92.38965;943.2748;;;;
2022/01/16 02:09:11;;;;;;;5.3;4.1;;;;;;;-1.6;92.52832;943.3356;;;;
2022/01/16 02:11:36;;;;;;;8.8;6;;;;;;;-1.48;92.21191;943.3067;;;;
2022/01/16 02:14:10;;;;;;;5;3.6;;;;;;;-1.44;91.93066;943.3963;;;;
2022/01/16 02:28:50;;;;;;;6.1;4.2;;;;;;;-1.76;92.11719;942.9586;;;;
2022/01/16 02:31:18;;;;;;;12;6.6;;;;;;;-1.83;92.51172;942.9623;;;;
2022/01/16 02:35:57;;;;;;;9.1;4.8;;;;;;;-1.93;93.87598;942.9703;;;;
2022/01/16 02:38:24;;;;;;;5.8;3.9;;;;;;;-1.87;94.58691;942.9763;;;;
2022/01/16 02:40:49;;;;;;;8;5.4;;;;;;;-1.91;94.30273;942.9256;;;;
2022/01/16 02:43:18;;;;;;;7;5;;;;;;;-1.81;94.09082;942.8839;;;;
2022/01/16 02:45:46;;;;;;;4.5;3.4;;;;;;;-1.75;93.86035;942.8256;;;;
2022/01/16 02:48:07;;;;;;;5.6;3.8;;;;;;;-1.73;93.26367;942.6401;;;;
2022/01/16 02:50:33;;;;;;;5.3;3.7;;;;;;;-1.85;93.16211;942.7797;;;;
2022/01/16 02:52:58;;;;;;;5.9;3.6;;;;;;;-1.73;93.07715;942.6333;;;;
2022/01/16 02:55:27;;;;;;;5;3.5;;;;;;;-1.69;92.55273;942.628;;;;
2022/01/16 02:57:52;;;;;;;5.7;3.9;;;;;;;-1.67;91.79297;942.6208;;;;
2022/01/16 03:00:17;;;;;;;6;4;;;;;;;-1.64;91.0332;942.6005;;;;
2022/01/16 03:02:44;;;;;;;6.4;4.5;;;;;;;-1.62;91.24805;942.4919;;;;
2022/01/16 03:05:09;;;;;;;7.9;5.5;;;;;;;-1.89;92.66602;942.6336;;;;
2022/01/16 03:07:39;;;;;;;7.6;4.7;;;;;;;-1.84;93.0625;942.5115;;;;
2022/01/16 03:10:17;;;;;;;8.1;5.4;;;;;;;-1.75;92.80664;942.5181;;;;
2022/01/16 03:12:29;;;;;;;6.9;4.1;;;;;;;-1.7;92.62793;942.5094;;;;
2022/01/16 03:14:58;;;;;;;5.7;3.7;;;;;;;-1.59;91.91016;942.4044;;;;
2022/01/16 03:17:35;;;;;;;4.6;3.3;;;;;;;-1.64;90.97754;942.4416;;;;
2022/01/16 03:22:13;;;;;;;5.6;3.9;;;;;;;-2.12;93.49902;942.4467;;;;
2022/01/16 03:24:38;;;;;;;8;4.7;;;;;;;-2.09;93.92773;942.545;;;;
2022/01/16 03:27:05;;;;;;;9.6;5.4;;;;;;;-2.01;93.61328;942.5083;;;;
2022/01/16 03:29:30;;;;;;;8.8;5.5;;;;;;;-1.94;93.29492;942.5042;;;;
2022/01/16 03:31:59;;;;;;;7.7;4.8;;;;;;;-1.88;92.88965;942.5099;;;;
2022/01/16 03:34:28;;;;;;;9.4;5.3;;;;;;;-1.82;92.44727;942.5234;;;;
2022/01/16 03:36:53;;;;;;;7.2;4.3;;;;;;;-1.79;92.51953;942.5097;;;;
2022/01/16 03:39:18;;;;;;;11.2;6.4;;;;;;;-1.78;92.53418;942.4422;;;;
2022/01/16 03:41:44;;;;;;;10.7;5.9;;;;;;;-1.81;92.48242;942.4394;;;;
2022/01/16 03:44:11;;;;;;;6.7;4.1;;;;;;;-1.86;92.05957;942.2955;;;;
2022/01/16 03:46:36;;;;;;;9.8;5;;;;;;;-1.72;90.9375;942.3289;;;;
2022/01/16 03:49:02;;;;;;;11.6;6;;;;;;;-1.77;91.18164;942.3992;;;;
2022/01/16 03:51:27;;;;;;;5.9;3.6;;;;;;;-1.87;91.35059;942.3882;;;;
2022/01/16 03:53:55;;;;;;;4;2.8;;;;;;;-1.87;90.88281;942.3745;;;;
2022/01/16 03:56:20;;;;;;;4.5;3;;;;;;;-1.84;90.66602;942.4497;;;;
2022/01/16 03:58:46;;;;;;;8.5;4.8;;;;;;;-1.81;90.53906;942.3555;;;;
2022/01/16 04:02:36;;;;;;;8.6;4.6;;;;;;;-1.9;90.21094;942.3411;;;;
2022/01/16 04:05:01;;;;;;;7;4.2;;;;;;;-1.91;89.69922;942.3915;;;;
2022/01/16 04:07:32;;;;;;;6.7;3.5;;;;;;;-1.99;90.10352;942.4883;;;;
2022/01/16 04:09:52;;;;;;;7;3.7;;;;;;;-2.03;90.22852;942.4989;;;;
2022/01/16 04:12:21;;;;;;;4.3;3;;;;;;;-2.06;90.55273;942.4623;;;;
2022/01/16 04:17:14;;;;;;;5.1;3.5;;;;;;;-2.15;90.61328;942.4875;;;;
2022/01/16 04:19:42;;;;;;;6.8;3.9;;;;;;;-2.18;90.95996;942.4394;;;;
2022/01/16 04:22:07;;;;;;;5.9;3.4;;;;;;;-2.31;91.6084;942.4233;;;;
2022/01/16 04:24:37;;;;;;;7.2;4.2;;;;;;;-2.39;92.04688;942.3323;;;;
2022/01/16 04:27:04;;;;;;;8.3;4.5;;;;;;;-2.41;92.70508;942.3578;;;;
2022/01/16 04:29:29;;;;;;;6.3;4.4;;;;;;;-2.28;92.06836;942.2003;;;;
2022/01/16 04:31:59;;;;;;;19.5;15;;;;;;;-2.22;91.87207;942.2798;;;;
2022/01/16 04:34:24;;;;;;;7.2;4.4;;;;;;;-2.4;92.35254;942.3301;;;;
2022/01/16 04:36:52;;;;;;;5.8;4;;;;;;;-2.36;92.82813;942.3062;;;;
2022/01/16 04:39:20;;;;;;;7.3;4.7;;;;;;;-2.34;92.83008;942.3383;;;;
2022/01/16 04:44:10;;;;;;;7.2;4.2;;;;;;;-2.45;93.83594;942.3886;;;;
2022/01/16 04:46:35;;;;;;;5.4;3.8;;;;;;;-2.31;92.9707;942.3895;;;;
2022/01/16 04:49:02;;;;;;;7.1;3.9;;;;;;;-2.24;92.50879;942.361;;;;
2022/01/16 04:51:27;;;;;;;6.2;3.9;;;;;;;-2.26;92.08398;942.4299;;;;
2022/01/16 04:53:56;;;;;;;5.4;3.7;;;;;;;-2.22;91.49316;942.4346;;;;
2022/01/16 04:56:21;;;;;;;5.1;3.6;;;;;;;-2.11;90.83008;942.4629;;;;
2022/01/16 04:58:47;;;;;;;5.8;3.8;;;;;;;-2.16;90.77539;942.4039;;;;
2022/01/16 05:01:12;;;;;;;5.9;3.8;;;;;;;-2.14;90.67969;942.4089;;;;
2022/01/16 05:03:39;;;;;;;4.6;3.4;;;;;;;-2.1;90.3125;942.481;;;;
2022/01/16 05:06:04;;;;;;;7.6;4.8;;;;;;;-2.17;90.30859;942.5161;;;;
2022/01/16 05:08:30;;;;;;;8.7;4.7;;;;;;;-2.21;89.7002;942.61;;;;
2022/01/16 05:10:56;;;;;;;7.1;5;;;;;;;-2.32;89.34668;942.6337;;;;
2022/01/16 05:16:34;;;;;;;6;4.4;;;;;;;-2.27;89.67773;942.6121;;;;
2022/01/16 05:18:14;;;;;;;6.6;5.3;;;;;;;-2.23;89.53223;942.6989;;;;
2022/01/16 05:20:39;;;;;;;6.4;4.2;;;;;;;-2.27;88.87793;942.7745;;;;
2022/01/16 05:23:06;;;;;;;6.1;3.9;;;;;;;-2.42;89.00391;942.7994;;;;
2022/01/16 05:25:32;;;;;;;6.4;4.1;;;;;;;-2.6;89.88477;942.8811;;;;
2022/01/16 05:27:57;;;;;;;5.2;3.4;;;;;;;-2.53;89.32422;942.9522;;;;
2022/01/16 05:30:23;;;;;;;5.5;3.8;;;;;;;-2.47;88.86133;942.9451;;;;
2022/01/16 05:32:48;;;;;;;5.8;3.8;;;;;;;-2.71;90.36816;942.9832;;;;
2022/01/16 05:35:15;;;;;;;5;4.3;;;;;;;-2.71;91.16602;943.0059;;;;
2022/01/16 05:37:40;;;;;;;6.2;3.8;;;;;;;-2.85;92.28711;943.0564;;;;
2022/01/16 05:40:08;;;;;;;6.2;4.2;;;;;;;-2.76;92.26074;943.0845;;;;
2022/01/16 05:42:34;;;;;;;5.7;3.7;;;;;;;-2.67;92.51465;943.0803;;;;
2022/01/16 05:45:00;;;;;;;5.5;3.5;;;;;;;-2.6;92.42871;943.0609;;;;
2022/01/16 05:47:25;;;;;;;5.5;4.2;;;;;;;-2.55;92.00879;943.087;;;;
2022/01/16 05:49:52;;;;;;;6.6;4.3;;;;;;;-2.53;91.61426;943.0625;;;;
2022/01/16 05:52:17;;;;;;;7.3;4.2;;;;;;;-2.53;91.24902;943.0095;;;;
2022/01/16 05:54:45;;;;;;;8.1;5.3;;;;;;;-2.48;91.21484;943.0119;;;;
2022/01/16 05:57:10;;;;;;;7.8;5.6;;;;;;;-2.5;91.22363;942.912;;;;
2022/01/16 05:59:36;;;;;;;9.1;5.4;;;;;;;-2.48;90.7832;943.0025;;;;
2022/01/16 06:02:01;;;;;;;7.7;4.5;;;;;;;-2.5;91.20117;943.0405;;;;
2022/01/16 06:04:30;;;;;;;7.1;5;;;;;;;-2.57;90.48828;943.0047;;;;
2022/01/16 06:06:55;;;;;;;5.7;4.3;;;;;;;-2.47;90.43457;943.2056;;;;
2022/01/16 06:09:21;;;;;;;5.8;4.2;;;;;;;-2.36;90.6123;943.2263;;;;
2022/01/16 06:11:47;;;;;;;4.7;4.2;;;;;;;-2.39;90.77344;943.3007;;;;
2022/01/16 06:14:14;;;;;;;6.5;4.2;;;;;;;-2.36;89.91504;943.2752;;;;
2022/01/16 06:16:39;;;;;;;7.4;5.2;;;;;;;-2.37;90.59961;943.2864;;;;
2022/01/16 06:19:08;;;;;;;11.2;6.2;;;;;;;-2.46;90.96582;943.3915;;;;
2022/01/16 06:21:36;;;;;;;13.5;7.8;;;;;;;-2.73;92.60059;943.3914;;;;
2022/01/16 06:24:01;;;;;;;11.3;7.6;;;;;;;-2.77;92.99121;943.432;;;;
2022/01/16 06:26:30;;;;;;;14.1;7.6;;;;;;;-2.79;93.39648;943.3734;;;;
2022/01/16 06:28:55;;;;;;;10.3;6.6;;;;;;;-2.65;93.22949;943.3844;;;;
2022/01/16 06:31:21;;;;;;;10;5.5;;;;;;;-2.55;92.28613;943.3686;;;;
2022/01/16 06:33:46;;;;;;;8.6;5;;;;;;;-2.41;91.56445;943.2684;;;;
2022/01/16 06:36:13;;;;;;;8.4;5.7;;;;;;;-2.41;91.75293;943.3552;;;;
2022/01/16 06:38:38;;;;;;;8.8;5.9;;;;;;;-2.5;92.05469;943.3025;;;;
2022/01/16 06:41:06;;;;;;;8.5;5.6;;;;;;;-2.71;92.56055;943.2525;;;;
2022/01/16 06:43:35;;;;;;;7.9;5.4;;;;;;;-2.72;92.77734;943.3267;;;;
2022/01/16 06:46:00;;;;;;;11.8;7.2;;;;;;;-2.66;92.60547;943.3606;;;;
2022/01/16 06:48:27;;;;;;;11.6;7.8;;;;;;;-2.6;92.72754;943.4086;;;;
2022/01/16 06:50:52;;;;;;;11.6;7.8;;;;;;;-2.52;92.36914;943.5144;;;;
2022/01/16 06:53:18;;;;;;;7.7;5.7;;;;;;;-2.43;92.47754;943.508;;;;
2022/01/16 06:55:43;;;;;;;8.6;5.7;;;;;;;-2.34;91.99023;943.563;;;;
2022/01/16 06:58:10;;;;;;;7.5;5.3;;;;;;;-2.3;91.07617;943.6205;;;;
2022/01/16 07:00:35;;;;;;;7.5;5.6;;;;;;;-2.35;90.10352;943.6561;;;;
2022/01/16 07:03:04;;;;;;;8.8;5.8;;;;;;;-2.38;90.24121;943.7084;;;;
2022/01/16 07:05:29;;;;;;;7.4;5.1;;;;;;;-2.39;90.18359;943.7308;;;;
2022/01/16 07:07:56;;;;;;;6.6;5.1;;;;;;;-2.35;91.04492;943.7372;;;;
2022/01/16 07:10:23;;;;;;;6.2;4.6;;;;;;;-2.33;91.19238;943.6936;;;;
2022/01/16 07:12:50;;;;;;;10.5;6.8;;;;;;;-2.27;91.12891;943.5984;;;;
2022/01/16 07:15:16;;;;;;;7.4;5.7;;;;;;;-2.21;90.95215;943.6083;;;;
2022/01/16 07:17:43;;;;;;;7.1;5.1;;;;;;;-2.3;90.2793;943.6011;;;;
2022/01/16 07:20:08;;;;;;;12.5;8.4;;;;;;;-2.46;91.08789;943.5193;;;;
2022/01/16 07:22:35;;;;;;;22.3;13.9;;;;;;;-2.47;91.79395;943.6075;;;;
2022/01/16 07:25:00;;;;;;;12.3;8.8;;;;;;;-2.44;91.69141;943.6292;;;;
2022/01/16 07:27:27;;;;;;;8.2;6.3;;;;;;;-2.4;91.56641;943.6805;;;;
2022/01/16 07:29:52;;;;;;;9.1;5.3;;;;;;;-2.41;92.01855;943.7326;;;;
2022/01/16 07:32:19;;;;;;;8.4;6.4;;;;;;;-2.29;91.76758;943.7062;;;;
2022/01/16 07:34:44;;;;;;;9.9;7.6;;;;;;;-2.32;91.60645;943.7021;;;;
2022/01/16 07:37:11;;;;;;;10.4;7;;;;;;;-2.22;91.43945;943.739;;;;
2022/01/16 07:39:37;;;;;;;9.6;6.8;;;;;;;-2.09;91;943.5687;;;;
2022/01/16 07:42:03;;;;;;;10.3;7;;;;;;;-2;90.21191;943.5525;;;;
2022/01/16 07:44:28;;;;;;;9.8;7.2;;;;;;;-1.85;90.82129;943.6752;;;;
2022/01/16 07:46:56;;;;;;;12;7.9;;;;;;;-1.12;90.13379;943.8079;;;;
2022/01/16 07:49:21;;;;;;;9.8;7.7;;;;;;;-0.43;84.24023;943.6959;;;;
2022/01/16 07:51:49;;;;;;;10.4;7.9;;;;;;;0.2;80.53027;943.6848;;;;
2022/01/16 07:54:14;;;;;;;10;7.3;;;;;;;0.93;77.0752;943.7217;;;;
2022/01/16 07:56:40;;;;;;;10.1;7.3;;;;;;;1.17;76.61719;943.7106;;;;
2022/01/16 07:59:05;;;;;;;10.3;7;;;;;;;1.28;74.92871;943.7758;;;;
2022/01/16 08:01:33;;;;;;;8.1;6.5;;;;;;;1.43;74.21875;943.8224;;;;
2022/01/16 08:03:58;;;;;;;5.4;4.6;;;;;;;2.26;71.73047;943.7509;;;;
2022/01/16 08:06:25;;;;;;;6.9;5.3;;;;;;;2.26;70.94629;943.7597;;;;
2022/01/16 08:08:50;;;;;;;8;6.1;;;;;;;1.65;73.2832;943.7517;;;;
2022/01/16 08:11:19;;;;;;;7.9;6.4;;;;;;;1.96;73.09082;943.6066;;;;
2022/01/16 08:13:49;;;;;;;10;5.1;;;;;;;2.36;75.18652;943.5098;;;;
2022/01/16 08:16:20;;;;;;;5.5;4.1;;;;;;;2.49;73.81934;943.5281;;;;
2022/01/16 08:18:50;;;;;;;5.8;4.5;;;;;;;3.18;70.28027;943.4785;;;;
2022/01/16 08:21:15;;;;;;;10.4;6.8;;;;;;;2.44;70.96387;943.5461;;;;
2022/01/16 08:23:44;;;;;;;13.9;9.4;;;;;;;2.53;71.07031;943.5275;;;;
2022/01/16 08:26:16;;;;;;;7.1;6.2;;;;;;;3;68.93848;943.3973;;;;
2022/01/16 08:28:45;;;;;;;6.1;4.2;;;;;;;3.08;67.99707;943.403;;;;
2022/01/16 08:31:16;;;;;;;6.4;4.7;;;;;;;3.06;68.29883;943.4763;;;;
2022/01/16 08:33:41;;;;;;;6.1;4.9;;;;;;;4.42;64.3291;943.413;;;;
2022/01/16 08:36:10;;;;;;;6;5.2;;;;;;;6.01;59.3252;943.3881;;;;
2022/01/16 08:38:37;;;;;;;9.5;7.4;;;;;;;6.62;56.91113;943.3547;;;;
2022/01/16 08:41:02;;;;;;;11.3;8.1;;;;;;;7.49;54.59961;943.265;;;;
2022/01/16 08:43:30;;;;;;;10.6;7.2;;;;;;;8;52.78125;943.1967;;;;
2022/01/16 08:45:57;;;;;;;6.7;5.7;;;;;;;9.52;48.41113;943.2406;;;;
2022/01/16 08:48:22;;;;;;;8.8;6.9;;;;;;;10.73;45.70313;943.2672;;;;
2022/01/16 08:50:48;;;;;;;4.7;4.2;;;;;;;11.37;42.93262;943.1886;;;;
2022/01/16 08:53:13;;;;;;;4.8;4;;;;;;;11.93;42.14063;943.3025;;;;
2022/01/16 08:55:43;;;;;;;4.5;3.7;;;;;;;9.88;45.24805;943.2805;;;;
2022/01/16 08:58:08;;;;;;;3.8;2.8;;;;;;;8.63;48.9707;943.3272;;;;
2022/01/16 09:00:35;;;;;;;4.1;3;;;;;;;8.5;50.3418;943.3942;;;;
2022/01/16 09:03:00;;;;;;;9.9;7.2;;;;;;;7.85;52.02441;943.4559;;;;
2022/01/16 09:05:29;;;;;;;6.3;4.8;;;;;;;6.77;54.55371;943.5422;;;;
2022/01/16 09:07:57;;;;;;;5.9;4.1;;;;;;;5.31;59.68066;943.5588;;;;
2022/01/16 09:10:22;;;;;;;3.6;3;;;;;;;4.56;61.88379;943.5945;;;;
2022/01/16 09:12:49;;;;;;;3.8;3;;;;;;;3.79;65.67188;943.6597;;;;
2022/01/16 09:15:15;;;;;;;3.8;3.2;;;;;;;3.35;67.77051;943.6436;;;;
2022/01/16 09:17:44;;;;;;;5.5;3.6;;;;;;;2.81;69.9043;943.7275;;;;
2022/01/16 09:20:18;;;;;;;5.5;3.7;;;;;;;2.56;71.70215;943.6649;;;;
2022/01/16 09:22:49;;;;;;;7.8;5.2;;;;;;;2.27;73.92676;943.7913;;;;
2022/01/16 09:25:20;;;;;;;7.2;4.7;;;;;;;2.35;73.89648;943.8699;;;;
2022/01/16 09:27:49;;;;;;;6.3;4.6;;;;;;;2.33;74.53223;943.8408;;;;
2022/01/16 09:30:21;;;;;;;4.7;3.5;;;;;;;2.15;75.07129;943.8865;;;;
2022/01/16 09:32:46;;;;;;;5.9;4;;;;;;;2;75.7041;943.9492;;;;
2022/01/16 09:35:11;;;;;;;5.8;3.9;;;;;;;2.09;75.03809;943.9708;;;;
2022/01/16 09:37:37;;;;;;;4.5;3.5;;;;;;;1.82;76.04102;943.9208;;;;
2022/01/16 09:40:02;;;;;;;6.3;4;;;;;;;1.91;75.79883;943.8834;;;;
2022/01/16 09:42:29;;;;;;;6.9;4.6;;;;;;;1.92;76.12598;943.8825;;;;
2022/01/16 09:44:54;;;;;;;6.7;5;;;;;;;1.76;77.22852;943.7681;;;;
2022/01/16 09:47:22;;;;;;;7.1;4.4;;;;;;;1.86;77.83789;943.7944;;;;
2022/01/16 09:49:47;;;;;;;6.1;4.7;;;;;;;1.81;78.44629;943.7955;;;;
2022/01/16 09:52:14;;;;;;;6.8;4.4;;;;;;;1.85;78.13867;943.8262;;;;
2022/01/16 09:54:40;;;;;;;5.6;3.8;;;;;;;2;76.98047;943.7701;;;;
2022/01/16 09:57:08;;;;;;;6.2;4.6;;;;;;;2.12;76.5332;943.7548;;;;
2022/01/16 09:59:33;;;;;;;4.3;3.2;;;;;;;2.16;75.48535;943.6975;;;;
2022/01/16 10:02:03;;;;;;;4.5;3;;;;;;;2.35;75.90137;943.65;;;;
2022/01/16 10:04:35;;;;;;;5.1;3;;;;;;;2.53;75.5752;943.746;;;;
2022/01/16 10:07:03;;;;;;;4.8;3.7;;;;;;;2.72;74.19629;943.6558;;;;
2022/01/16 10:09:33;;;;;;;5.1;3.4;;;;;;;2.92;74.8916;943.6478;;;;
2022/01/16 10:12:02;;;;;;;8.8;5.9;;;;;;;2.97;73.16211;943.5942;;;;
2022/01/16 10:14:26;;;;;;;22.6;12.8;;;;;;;3.05;73.34473;943.5945;;;;
2022/01/16 10:16:52;;;;;;;17.2;10.3;;;;;;;3.22;72.30762;943.6622;;;;
2022/01/16 10:19:23;;;;;;;18.3;10.6;;;;;;;3.35;71.85938;943.6259;;;;
2022/01/16 10:21:51;;;;;;;7.9;4.6;;;;;;;3.47;72.50684;943.587;;;;
2022/01/16 10:24:16;;;;;;;4.5;3.5;;;;;;;3.55;72.79102;943.6121;;;;
2022/01/16 10:26:44;;;;;;;6.6;3.9;;;;;;;3.61;71.96973;943.6006;;;;
2022/01/16 10:29:09;;;;;;;4.1;3.3;;;;;;;3.45;72.34766;943.5115;;;;
2022/01/16 10:31:36;;;;;;;4.6;3.6;;;;;;;3.58;72.04297;943.4777;;;;
2022/01/16 10:34:02;;;;;;;5.4;3.9;;;;;;;3.58;71.84082;943.4408;;;;
2022/01/16 10:36:27;;;;;;;3.4;2.8;;;;;;;3.57;71.46875;943.5027;;;;
2022/01/16 10:38:53;;;;;;;4.3;2.9;;;;;;;3.49;72.89453;943.5276;;;;
2022/01/16 10:41:19;;;;;;;6.3;4.8;;;;;;;3.38;73.92871;943.4939;;;;
2022/01/16 10:43:47;;;;;;;11;8.3;;;;;;;3.33;73.39453;943.5589;;;;
2022/01/16 10:46:12;;;;;;;16.8;10.9;;;;;;;3.32;73.7168;943.4863;;;;
2022/01/16 10:48:40;;;;;;;17.2;11.1;;;;;;;3.32;74.06445;943.5494;;;;
2022/01/16 10:51:04;;;;;;;17;11.2;;;;;;;3.38;74.13086;943.4253;;;;
2022/01/16 10:53:44;;;;;;;13.1;9.1;;;;;;;3.28;73.39453;943.5012;;;;
2022/01/16 10:56:10;;;;;;;13.3;8.3;;;;;;;3.28;74.14648;943.4358;;;;
2022/01/16 10:58:36;;;;;;;14.4;8.2;;;;;;;3.47;73.38281;943.4879;;;;
2022/01/16 11:01:06;;;;;;;8.7;4.8;;;;;;;3.71;71.00879;943.5114;;;;
2022/01/16 11:03:37;;;;;;;5.4;4.2;;;;;;;3.96;69.38672;943.491;;;;
2022/01/16 11:06:09;;;;;;;5.1;3.7;;;;;;;4.08;68.04492;943.5938;;;;
2022/01/16 11:08:39;;;;;;;4.5;3.4;;;;;;;4.28;68.04297;943.4977;;;;
2022/01/16 11:11:11;;;;;;;4;2.6;;;;;;;4.36;65.32129;943.4827;;;;
2022/01/16 11:13:40;;;;;;;3.4;2.7;;;;;;;4.61;65.96777;943.5388;;;;
2022/01/16 11:16:07;;;;;;;3.3;2.5;;;;;;;4.81;64.89258;943.4221;;;;
2022/01/16 11:18:31;;;;;;;2.9;2.2;;;;;;;4.96;64.85059;943.5544;;;;
2022/01/16 11:21:14;;;;;;;2.4;2;;;;;;;5.07;63.20898;943.5776;;;;
2022/01/16 11:23:33;;;;;;;5.5;4.1;;;;;;;5.02;66.22363;943.639;;;;
2022/01/16 11:25:54;;;;;;;5.6;3.6;;;;;;;5.07;66.84961;943.5901;;;;
2022/01/16 11:28:22;;;;;;;5.2;3.3;;;;;;;5.03;66.07813;943.6668;;;;
2022/01/16 11:30:47;;;;;;;4.5;3.7;;;;;;;4.93;66.02832;943.7;;;;
2022/01/16 11:33:12;;;;;;;4;3.1;;;;;;;4.96;65.19922;943.7665;;;;
2022/01/16 11:35:38;;;;;;;3.2;2;;;;;;;4.98;64.40234;943.7919;;;;
2022/01/16 11:38:05;;;;;;;2.8;1.8;;;;;;;4.94;63.96875;943.731;;;;
2022/01/16 11:40:37;;;;;;;1.4;1.3;;;;;;;4.91;63.86133;943.7186;;;;
2022/01/16 11:42:55;;;;;;;1.2;1.1;;;;;;;4.89;63.26172;943.8505;;;;
2022/01/16 11:45:20;;;;;;;2;1.7;;;;;;;4.84;64.16602;943.8438;;;;
2022/01/16 11:47:45;;;;;;;2.4;2;;;;;;;4.88;65.66016;943.8823;;;;
2022/01/16 11:50:10;;;;;;;3.1;2.6;;;;;;;4.9;66.21484;943.7648;;;;
2022/01/16 11:52:35;;;;;;;3.5;2.5;;;;;;;4.98;66.04785;943.8137;;;;
2022/01/16 11:55:01;;;;;;;3.2;2.2;;;;;;;5.09;65.03711;943.8167;;;;
2022/01/16 11:57:27;;;;;;;2.5;1.8;;;;;;;5.13;63.25098;943.8514;;;;
2022/01/16 11:59:54;;;;;;;2.4;1.7;;;;;;;5.25;62.94141;943.767;;;;
2022/01/16 12:02:19;;;;;;;2.1;1.8;;;;;;;5.47;62.29785;943.7978;;;;
2022/01/16 12:04:44;;;;;;;1.9;1.6;;;;;;;5.75;60.0918;943.8235;;;;
2022/01/16 12:07:11;;;;;;;1.9;1.6;;;;;;;5.93;59.96973;943.7302;;;;
2022/01/16 12:09:37;;;;;;;2;1.8;;;;;;;6.09;59.63086;943.6956;;;;
2022/01/16 12:12:04;;;;;;;1.8;1.7;;;;;;;6.24;60.01367;943.853;;;;
2022/01/16 12:14:29;;;;;;;2.6;1.9;;;;;;;6.22;59.10645;943.6506;;;;
2022/01/16 12:16:59;;;;;;;2.7;2;;;;;;;6.46;58.46094;943.6163;;;;
2022/01/16 12:19:23;;;;;;;2.1;1.9;;;;;;;6.26;58.59277;943.7139;;;;
2022/01/16 12:21:52;;;;;;;2.2;2;;;;;;;6.23;59.31152;943.8702;;;;
2022/01/16 12:24:18;;;;;;;6.6;2.1;;;;;;;6.22;60.55469;943.8611;;;;
2022/01/16 12:26:46;;;;;;;4.5;2;;;;;;;6.16;58.7373;943.8295;;;;
2022/01/16 12:29:11;;;;;;;3;2.2;;;;;;;6.33;59.42676;943.6275;;;;
2022/01/16 12:31:36;;;;;;;2.5;1.9;;;;;;;6.73;58.3623;943.7031;;;;
2022/01/16 12:34:05;;;;;;;2.9;2;;;;;;;6.63;58.46191;943.6778;;;;
2022/01/16 12:36:29;;;;;;;3.1;2;;;;;;;6.46;58.94824;943.7833;;;;
2022/01/16 12:38:54;;;;;;;4.6;2.8;;;;;;;6.68;59.43164;943.7981;;;;
2022/01/16 12:41:20;;;;;;;3.1;2.3;;;;;;;6.63;59.02832;943.787;;;;
2022/01/16 12:43:48;;;;;;;5;2.3;;;;;;;6.67;59.61035;943.7938;;;;
2022/01/16 12:46:14;;;;;;;2.9;2.4;;;;;;;6.83;58.89648;943.7271;;;;
2022/01/16 12:48:39;;;;;;;4.4;2.4;;;;;;;6.74;59.02051;943.7096;;;;
2022/01/16 12:51:04;;;;;;;3.6;2.3;;;;;;;6.79;59.19629;943.7352;;;;
2022/01/16 12:53:30;;;;;;;4.4;2.6;;;;;;;6.95;59.11719;943.6961;;;;
2022/01/16 12:55:55;;;;;;;4.1;2.6;;;;;;;7.02;58.24316;943.7518;;;;
2022/01/16 12:58:20;;;;;;;4.5;2.4;;;;;;;7.29;57.25;943.7233;;;;
2022/01/16 13:00:45;;;;;;;3.9;2.6;;;;;;;7.5;56.99316;943.6601;;;;
2022/01/16 13:03:10;;;;;;;4.2;2.6;;;;;;;7.42;56.66602;943.7457;;;;
2022/01/16 13:05:36;;;;;;;4.2;2.8;;;;;;;7.25;57.24316;943.7837;;;;
2022/01/16 13:08:01;;;;;;;3.4;2.4;;;;;;;7.54;56.93164;943.7634;;;;
2022/01/16 13:10:27;;;;;;;4.4;2.9;;;;;;;7.72;56.16113;943.6819;;;;
2022/01/16 13:12:56;;;;;;;11.5;5;;;;;;;7.75;56.05078;943.7087;;;;
2022/01/16 13:15:21;;;;;;;4.7;3;;;;;;;7.61;55.59082;943.6192;;;;
2022/01/16 13:17:46;;;;;;;17.5;8.6;;;;;;;7.58;56.4375;943.6584;;;;
2022/01/16 13:20:15;;;;;;;4.8;2.4;;;;;;;7.39;55.74219;943.6103;;;;
2022/01/16 13:22:37;;;;;;;9.2;5.1;;;;;;;7.4;55.58594;943.6376;;;;
2022/01/16 13:25:05;;;;;;;6.5;3.2;;;;;;;7.7;55.78418;943.6226;;;;
2022/01/16 13:27:29;;;;;;;4.5;3.1;;;;;;;7.82;55.16309;943.7094;;;;
2022/01/16 13:29:55;;;;;;;5.2;3;;;;;;;8.03;54.37402;943.6459;;;;
2022/01/16 13:32:20;;;;;;;3.2;2;;;;;;;8.13;52.66016;943.7469;;;;
2022/01/16 13:34:50;;;;;;;5.4;2.7;;;;;;;8.3;53.04395;943.7255;;;;
2022/01/16 13:37:15;;;;;;;31.6;15.2;;;;;;;8.32;52.30859;943.7698;;;;
2022/01/16 13:39:40;;;;;;;17.7;9.3;;;;;;;8.36;52.2002;943.8601;;;;
2022/01/16 13:42:07;;;;;;;10;6.1;;;;;;;8.49;51.89746;943.8344;;;;
2022/01/16 13:44:32;;;;;;;6.7;3.8;;;;;;;8.23;52.50293;943.7961;;;;
2022/01/16 13:46:57;;;;;;;6;3.4;;;;;;;8.66;50.99805;943.8811;;;;
2022/01/16 13:49:22;;;;;;;10;5.3;;;;;;;8.92;50.45898;943.9045;;;;
2022/01/16 13:51:49;;;;;;;11.6;5.9;;;;;;;8.65;50.59863;943.8564;;;;
2022/01/16 13:54:14;;;;;;;6;3.3;;;;;;;8.45;51.10938;943.8501;;;;
2022/01/16 13:56:40;;;;;;;3.9;2.3;;;;;;;8.61;50.42285;943.8739;;;;
2022/01/16 13:59:05;;;;;;;8.9;4.1;;;;;;;9.09;49.80762;944.0139;;;;
2022/01/16 14:01:31;;;;;;;6.5;3.5;;;;;;;9.88;48.74805;944.0139;;;;
2022/01/16 14:03:57;;;;;;;6.2;3.4;;;;;;;12.09;43.31445;943.9506;;;;
2022/01/16 14:06:22;;;;;;;3.7;2.4;;;;;;;14.09;38.49414;944.0219;;;;
2022/01/16 14:08:48;;;;;;;4.2;2.6;;;;;;;15.96;35.43359;943.9678;;;;
2022/01/16 14:11:14;;;;;;;5.2;2.6;;;;;;;16.39;34.25391;943.9358;;;;
2022/01/16 14:13:43;;;;;;;4.4;2.7;;;;;;;16.29;33.21582;943.8887;;;;
2022/01/16 14:16:13;;;;;;;4.2;2.6;;;;;;;17.89;31.78027;943.998;;;;
2022/01/16 14:19:11;;;;;;;3.2;2.1;;;;;;;18.44;30.56445;943.9697;;;;
2022/01/16 14:22:02;;;;;;;4.4;2.1;;;;;;;20.14;28.26758;943.964;;;;
2022/01/16 14:23:32;;;;;;;3;2;;;;;;;18.84;29.52246;944.0422;;;;
2022/01/16 14:26:00;;;;;;;3.9;2.3;;;;;;;17.38;31.90723;944.0703;;;;
2022/01/16 14:28:25;;;;;;;4;2.5;;;;;;;16.54;33.29297;944.1317;;;;
2022/01/16 14:30:56;;;;;;;3.4;2.3;;;;;;;15.86;34.3623;944.1342;;;;
2022/01/16 14:33:25;;;;;;;4.8;2.4;;;;;;;15.2;35.08301;944.222;;;;
2022/01/16 14:35:50;;;;;;;3.1;2.2;;;;;;;14.33;35.84277;944.2164;;;;
2022/01/16 14:38:18;;;;;;;3.1;2.1;;;;;;;15.69;35.11133;944.1912;;;;
2022/01/16 14:40:42;;;;;;;3.1;2.1;;;;;;;17.44;32.07324;944.2473;;;;
2022/01/16 14:43:14;;;;;;;3.8;2.4;;;;;;;17.47;31.64648;944.3059;;;;
2022/01/16 14:45:32;;;;;;;3.7;2.2;;;;;;;17.03;32.15918;944.2124;;;;
2022/01/16 14:47:58;;;;;;;3.3;2.2;;;;;;;15.25;34.36035;944.2496;;;;
2022/01/16 14:50:24;;;;;;;3.1;2.2;;;;;;;14.09;36.01953;944.3639;;;;
2022/01/16 14:52:51;;;;;;;3.2;2.3;;;;;;;13.5;37.21191;944.4406;;;;
2022/01/16 14:55:17;;;;;;;3.6;2.3;;;;;;;12.61;39.01758;944.4174;;;;
2022/01/16 14:57:45;;;;;;;3.7;2.2;;;;;;;11.63;40.62305;944.4587;;;;